sensor_id;sensor_type;location;lat;lon;timestamp;pressure;altitude;pressure_sealevel;temperature;humidity
8717;BME280;4395;48.554;8.820;2022-09-01T00:01:53;95353.75;;;8.87;100.00
8717;BME280;4395;48.554;8.820;2022-09-01T00:03:57;95664.06;;;11.63;100.00
8717;BME280;4395;48.554;8.820;2022-09-01T00:06:03;96121.81;;;14.80;100.00
8717;BME280;4395;48.554;8.820;2022-09-01T00:08:12;95980.47;;;14.08;100.00
8717;BME280;4395;48.554;8.820;2022-09-01T00:10:19;95600.19;;;11.33;100.00
8717;BME280;4395;48.554;8.820;2022-09-01T00:12:23;96118.00;;;14.86;100.00
8717;BME280;4395;48.554;8.820;2022-09-01T00:14:29;96106.63;;;14.94;100.00
8717;BME280;4395;48.554;8.820;2022-09-01T00:16:33;96114.72;;;14.99;100.00
8717;BME280;4395;48.554;8.820;2022-09-01T00:18:36;95995.34;;;13.80;100.00
8717;BME280;4395;48.554;8.820;2022-09-01T00:20:38;96124.81;;;14.68;100.00
8717;BME280;4395;48.554;8.820;2022-09-01T00:22:41;96047.75;;;14.35;100.00
8717;BME280;4395;48.554;8.820;2022-09-01T00:24:45;95874.13;;;13.18;100.00
8717;BME280;4395;48.554;8.820;2022-09-01T00:26:48;96136.41;;;14.89;100.00
8717;BME280;4395;48.554;8.820;2022-09-01T00:28:52;96111.00;;;14.60;100.00
8717;BME280;4395;48.554;8.820;2022-09-01T00:30:55;96116.13;;;14.82;100.00
8717;BME280;4395;48.554;8.820;2022-09-01T00:32:59;94971.06;;;7.74;100.00
8717;BME280;4395;48.554;8.820;2022-09-01T00:35:03;96022.28;;;13.30;100.00
8717;BME280;4395;48.554;8.820;2022-09-01T00:37:09;95823.13;;;13.16;100.00
8717;BME280;4395;48.554;8.820;2022-09-01T00:39:12;96125.59;;;14.33;100.00
8717;BME280;4395;48.554;8.820;2022-09-01T00:41:16;95927.25;;;13.94;100.00
8717;BME280;4395;48.554;8.820;2022-09-01T00:43:22;95920.53;;;13.91;100.00
8717;BME280;4395;48.554;8.820;2022-09-01T00:45:28;96097.91;;;15.12;100.00
8717;BME280;4395;48.554;8.820;2022-09-01T00:47:37;96078.53;;;14.70;100.00
8717;BME280;4395;48.554;8.820;2022-09-01T00:49:42;95961.25;;;14.25;100.00
8717;BME280;4395;48.554;8.820;2022-09-01T00:51:50;95961.00;;;14.22;100.00
8717;BME280;4395;48.554;8.820;2022-09-01T00:53:55;96101.16;;;15.15;100.00
8717;BME280;4395;48.554;8.820;2022-09-01T00:55:59;95844.16;;;13.50;100.00
8717;BME280;4395;48.554;8.820;2022-09-01T00:58:03;96103.31;;;15.12;100.00
8717;BME280;4395;48.554;8.820;2022-09-01T01:00:22;95854.13;;;13.49;100.00
8717;BME280;4395;48.554;8.820;2022-09-01T01:02:27;96093.16;;;14.69;100.00
8717;BME280;4395;48.554;8.820;2022-09-01T01:04:31;96107.66;;;15.08;100.00
8717;BME280;4395;48.554;8.820;2022-09-01T01:06:34;96104.16;;;15.08;100.00
8717;BME280;4395;48.554;8.820;2022-09-01T01:08:39;96108.19;;;15.10;100.00
8717;BME280;4395;48.554;8.820;2022-09-01T01:10:44;95778.31;;;13.05;100.00
8717;BME280;4395;48.554;8.820;2022-09-01T01:12:47;95925.69;;;13.42;100.00
8717;BME280;4395;48.554;8.820;2022-09-01T01:14:52;96105.53;;;15.00;100.00
8717;BME280;4395;48.554;8.820;2022-09-01T01:16:55;95926.19;;;13.84;100.00
8717;BME280;4395;48.554;8.820;2022-09-01T01:18:59;96106.63;;;14.94;100.00
8717;BME280;4395;48.554;8.820;2022-09-01T01:21:05;96006.09;;;14.36;100.00
8717;BME280;4395;48.554;8.820;2022-09-01T01:23:34;96106.59;;;15.04;100.00
8717;BME280;4395;48.554;8.820;2022-09-01T01:25:41;96104.47;;;14.91;100.00
8717;BME280;4395;48.554;8.820;2022-09-01T01:27:47;96233.00;;;14.89;100.00
8717;BME280;4395;48.554;8.820;2022-09-01T01:29:51;95654.47;;;11.87;100.00
8717;BME280;4395;48.554;8.820;2022-09-01T01:31:55;96098.84;;;14.67;100.00
8717;BME280;4395;48.554;8.820;2022-09-01T01:33:58;96094.78;;;14.70;100.00
8717;BME280;4395;48.554;8.820;2022-09-01T01:36:03;96093.16;;;14.69;100.00
8717;BME280;4395;48.554;8.820;2022-09-01T01:38:08;96090.09;;;12.96;100.00
8717;BME280;4395;48.554;8.820;2022-09-01T01:40:12;96100.47;;;14.53;100.00
8717;BME280;4395;48.554;8.820;2022-09-01T01:42:18;95962.38;;;13.43;100.00
8717;BME280;4395;48.554;8.820;2022-09-01T01:44:24;96104.78;;;14.29;100.00
8717;BME280;4395;48.554;8.820;2022-09-01T01:46:35;96068.03;;;14.12;100.00
8717;BME280;4395;48.554;8.820;2022-09-01T01:48:40;95943.75;;;13.31;100.00
8717;BME280;4395;48.554;8.820;2022-09-01T01:50:44;96102.63;;;14.21;100.00
8717;BME280;4395;48.554;8.820;2022-09-01T01:52:50;96110.72;;;14.15;100.00
8717;BME280;4395;48.554;8.820;2022-09-01T01:54:59;96032.91;;;13.77;100.00
8717;BME280;4395;48.554;8.820;2022-09-01T01:57:06;95993.19;;;13.52;100.00
8717;BME280;4395;48.554;8.820;2022-09-01T01:59:10;96111.00;;;14.39;100.00
8717;BME280;4395;48.554;8.820;2022-09-01T02:01:17;96102.88;;;14.34;100.00
8717;BME280;4395;48.554;8.820;2022-09-01T02:03:26;96112.34;;;14.27;100.00
8717;BME280;4395;48.554;8.820;2022-09-01T02:05:39;96111.00;;;14.39;100.00
8717;BME280;4395;48.554;8.820;2022-09-01T02:07:42;96111.28;;;14.18;100.00
8717;BME280;4395;48.554;8.820;2022-09-01T02:09:45;96107.75;;;14.27;100.00
8717;BME280;4395;48.554;8.820;2022-09-01T02:11:49;96141.28;;;14.31;100.00
8717;BME280;4395;48.554;8.820;2022-09-01T02:13:55;96109.38;;;14.28;100.00
8717;BME280;4395;48.554;8.820;2022-09-01T02:16:02;96105.31;;;14.21;100.00
8717;BME280;4395;48.554;8.820;2022-09-01T02:18:09;95959.66;;;13.17;100.00
8717;BME280;4395;48.554;8.820;2022-09-01T02:20:14;96111.53;;;14.16;100.00
8717;BME280;4395;48.554;8.820;2022-09-01T02:22:17;96100.19;;;14.14;100.00
8717;BME280;4395;48.554;8.820;2022-09-01T02:24:22;95456.03;;;10.07;100.00
8717;BME280;4395;48.554;8.820;2022-09-01T02:26:28;95501.28;;;9.88;100.00
8717;BME280;4395;48.554;8.820;2022-09-01T02:28:35;95616.06;;;11.29;100.00
8717;BME280;4395;48.554;8.820;2022-09-01T02:30:40;96159.94;;;14.38;100.00
8717;BME280;4395;48.554;8.820;2022-09-01T02:32:45;96100.22;;;14.50;100.00
8717;BME280;4395;48.554;8.820;2022-09-01T02:34:49;95964.28;;;13.63;100.00
8717;BME280;4395;48.554;8.820;2022-09-01T02:36:56;96001.28;;;13.93;100.00
8717;BME280;4395;48.554;8.820;2022-09-01T02:38:59;95667.31;;;11.70;100.00
8717;BME280;4395;48.554;8.820;2022-09-01T02:41:02;96017.78;;;14.01;100.00
8717;BME280;4395;48.554;8.820;2022-09-01T02:43:05;95984.53;;;13.55;100.00
8717;BME280;4395;48.554;8.820;2022-09-01T02:45:09;96110.16;;;14.79;100.00
8717;BME280;4395;48.554;8.820;2022-09-01T02:47:18;95844.41;;;13.08;100.00
8717;BME280;4395;48.554;8.820;2022-09-01T02:49:22;96111.25;;;14.78;100.00
8717;BME280;4395;48.554;8.820;2022-09-01T02:51:28;96112.88;;;14.85;100.00
8717;BME280;4395;48.554;8.820;2022-09-01T02:53:33;96117.50;;;14.69;100.00
8717;BME280;4395;48.554;8.820;2022-09-01T02:55:38;96108.31;;;14.29;100.00
8717;BME280;4395;48.554;8.820;2022-09-01T02:57:41;95798.22;;;12.74;100.00
8717;BME280;4395;48.554;8.820;2022-09-01T02:59:46;96295.50;;;14.72;100.00
8717;BME280;4395;48.554;8.820;2022-09-01T03:01:52;96124.22;;;14.82;100.00
8717;BME280;4395;48.554;8.820;2022-09-01T03:03:57;96017.34;;;13.06;100.00
8717;BME280;4395;48.554;8.820;2022-09-01T03:06:02;96118.03;;;14.76;100.00
8717;BME280;4395;48.554;8.820;2022-09-01T03:08:14;96118.56;;;14.78;100.00
8717;BME280;4395;48.554;8.820;2022-09-01T03:10:17;96118.56;;;14.78;100.00
8717;BME280;4395;48.554;8.820;2022-09-01T03:12:25;96116.38;;;14.85;100.00
8717;BME280;4395;48.554;8.820;2022-09-01T03:14:28;96166.44;;;14.88;100.00
8717;BME280;4395;48.554;8.820;2022-09-01T03:16:33;96100.13;;;14.90;100.00
8717;BME280;4395;48.554;8.820;2022-09-01T03:18:37;96107.25;;;14.51;100.00
8717;BME280;4395;48.554;8.820;2022-09-01T03:20:43;96108.03;;;14.41;100.00
8717;BME280;4395;48.554;8.820;2022-09-01T03:22:49;95590.28;;;10.81;100.00
8717;BME280;4395;48.554;8.820;2022-09-01T03:24:54;96100.19;;;14.04;100.00
8717;BME280;4395;48.554;8.820;2022-09-01T03:26:58;96086.13;;;14.12;100.00
8717;BME280;4395;48.554;8.820;2022-09-01T03:29:02;96109.91;;;14.15;100.00
8717;BME280;4395;48.554;8.820;2022-09-01T03:31:06;96110.19;;;13.98;100.00
8717;BME280;4395;48.554;8.820;2022-09-01T03:33:10;95353.66;;;9.41;100.00
8717;BME280;4395;48.554;8.820;2022-09-01T03:35:14;96108.56;;;14.23;100.00
8717;BME280;4395;48.554;8.820;2022-09-01T03:37:18;96103.97;;;13.98;100.00
8717;BME280;4395;48.554;8.820;2022-09-01T03:39:22;96109.38;;;14.08;100.00
8717;BME280;4395;48.554;8.820;2022-09-01T03:41:27;96098.56;;;14.13;100.00
8717;BME280;4395;48.554;8.820;2022-09-01T03:43:32;96096.94;;;14.12;100.00
8717;BME280;4395;48.554;8.820;2022-09-01T03:45:38;96096.94;;;14.17;100.00
8717;BME280;4395;48.554;8.820;2022-09-01T03:47:42;96076.69;;;14.04;100.00
8717;BME280;4395;48.554;8.820;2022-09-01T03:49:45;95897.41;;;12.56;100.00
8717;BME280;4395;48.554;8.820;2022-09-01T03:51:49;95759.97;;;11.26;100.00
8717;BME280;4395;48.554;8.820;2022-09-01T03:53:54;96097.75;;;14.07;100.00
8717;BME280;4395;48.554;8.820;2022-09-01T03:56:03;96089.91;;;13.86;100.00
8717;BME280;4395;48.554;8.820;2022-09-01T03:58:08;96098.00;;;13.80;100.00
8717;BME280;4395;48.554;8.820;2022-09-01T04:00:28;96105.47;;;13.48;100.00
8717;BME280;4395;48.554;8.820;2022-09-01T04:02:33;95323.19;;;8.07;100.00
8717;BME280;4395;48.554;8.820;2022-09-01T04:04:36;96097.44;;;13.78;100.00
8717;BME280;4395;48.554;8.820;2022-09-01T04:06:40;96095.81;;;13.77;100.00
8717;BME280;4395;48.554;8.820;2022-09-01T04:08:43;95970.31;;;12.92;100.00
8717;BME280;4395;48.554;8.820;2022-09-01T04:10:49;95839.72;;;11.85;100.00
8717;BME280;4395;48.554;8.820;2022-09-01T04:12:57;96103.34;;;13.60;100.00
8717;BME280;4395;48.554;8.820;2022-09-01T04:15:00;96098.22;;;13.64;100.00
8717;BME280;4395;48.554;8.820;2022-09-01T04:17:04;96091.75;;;13.65;100.00
8717;BME280;4395;48.554;8.820;2022-09-01T04:19:33;96096.34;;;13.64;100.00
8717;BME280;4395;48.554;8.820;2022-09-01T04:21:37;95918.41;;;12.54;100.00
8717;BME280;4395;48.554;8.820;2022-09-01T04:23:40;95711.47;;;10.42;100.00
8717;BME280;4395;48.554;8.820;2022-09-01T04:25:43;96114.94;;;13.50;100.00
8717;BME280;4395;48.554;8.820;2022-09-01T04:27:48;95907.56;;;12.34;100.00
8717;BME280;4395;48.554;8.820;2022-09-01T04:29:52;95785.41;;;11.56;100.00
8717;BME280;4395;48.554;8.820;2022-09-01T04:32:05;95471.50;;;9.89;100.00
8717;BME280;4395;48.554;8.820;2022-09-01T04:34:12;96108.81;;;13.96;100.00
8717;BME280;4395;48.554;8.820;2022-09-01T04:36:19;96112.56;;;13.79;100.00
8717;BME280;4395;48.554;8.820;2022-09-01T04:38:24;96114.72;;;13.67;100.00
8717;BME280;4395;48.554;8.820;2022-09-01T04:40:29;96111.50;;;13.86;100.00
8717;BME280;4395;48.554;8.820;2022-09-01T04:42:34;96112.34;;;14.06;100.00
8717;BME280;4395;48.554;8.820;2022-09-01T04:44:38;96118.03;;;14.20;100.00
8717;BME280;4395;48.554;8.820;2022-09-01T04:46:42;96115.06;;;14.32;100.00
8717;BME280;4395;48.554;8.820;2022-09-01T04:48:51;96109.41;;;14.48;100.00
8717;BME280;4395;48.554;8.820;2022-09-01T04:50:54;96119.66;;;14.41;100.00
8717;BME280;4395;48.554;8.820;2022-09-01T04:53:01;96110.72;;;14.36;100.00
8717;BME280;4395;48.554;8.820;2022-09-01T04:55:13;96112.34;;;14.27;100.00
8717;BME280;4395;48.554;8.820;2022-09-01T04:57:19;96083.97;;;14.09;100.00
8717;BME280;4395;48.554;8.820;2022-09-01T04:59:23;96110.19;;;14.19;100.00
8717;BME280;4395;48.554;8.820;2022-09-01T05:01:32;96101.22;;;13.77;100.00
8717;BME280;4395;48.554;8.820;2022-09-01T05:03:47;96107.66;;;13.56;100.00
8717;BME280;4395;48.554;8.820;2022-09-01T05:06:18;96109.56;;;13.56;100.00
8717;BME280;4395;48.554;8.820;2022-09-01T05:08:25;96108.00;;;13.90;100.00
8717;BME280;4395;48.554;8.820;2022-09-01T05:10:38;95913.63;;;12.77;100.00
8717;BME280;4395;48.554;8.820;2022-09-01T05:12:51;96105.06;;;14.27;100.00
8717;BME280;4395;48.554;8.820;2022-09-01T05:14:55;95967.16;;;13.15;100.00
8717;BME280;4395;48.554;8.820;2022-09-01T05:16:58;96102.06;;;14.08;100.00
8717;BME280;4395;48.554;8.820;2022-09-01T05:19:03;96103.41;;;13.86;100.00
8717;BME280;4395;48.554;8.820;2022-09-01T05:21:09;96104.75;;;13.93;100.00
8717;BME280;4395;48.554;8.820;2022-09-01T05:23:13;96092.09;;;14.14;100.00
8717;BME280;4395;48.554;8.820;2022-09-01T05:25:20;96089.38;;;14.19;100.00
8717;BME280;4395;48.554;8.820;2022-09-01T05:27:23;96103.16;;;14.18;100.00
8717;BME280;4395;48.554;8.820;2022-09-01T05:29:27;96099.09;;;14.25;100.00
8717;BME280;4395;48.554;8.820;2022-09-01T05:31:32;96098.03;;;14.52;100.00
8717;BME280;4395;48.554;8.820;2022-09-01T05:33:39;96057.22;;;14.23;100.00
8717;BME280;4395;48.554;8.820;2022-09-01T05:35:53;96105.06;;;14.58;100.00
8717;BME280;4395;48.554;8.820;2022-09-01T05:37:56;96105.59;;;14.70;100.00
8717;BME280;4395;48.554;8.820;2022-09-01T05:40:00;96101.25;;;14.79;100.00
8717;BME280;4395;48.554;8.820;2022-09-01T05:42:04;96106.28;;;15.16;100.00
8717;BME280;4395;48.554;8.820;2022-09-01T05:44:10;95973.66;;;14.52;100.00
8717;BME280;4395;48.554;8.820;2022-09-01T05:46:18;96101.91;;;15.25;100.00
8717;BME280;4395;48.554;8.820;2022-09-01T05:48:23;95838.97;;;12.93;100.00
8717;BME280;4395;48.554;8.820;2022-09-01T05:50:26;96112.06;;;14.84;100.00
8717;BME280;4395;48.554;8.820;2022-09-01T05:52:33;96095.72;;;15.15;100.00
8717;BME280;4395;48.554;8.820;2022-09-01T05:54:38;96087.03;;;15.23;100.00
8717;BME280;4395;48.554;8.820;2022-09-01T05:56:42;96097.59;;;15.24;100.00
8717;BME280;4395;48.554;8.820;2022-09-01T05:58:49;96099.50;;;15.19;100.00
8717;BME280;4395;48.554;8.820;2022-09-01T06:01:17;96099.41;;;15.44;100.00
8717;BME280;4395;48.554;8.820;2022-09-01T06:03:24;96095.31;;;15.52;100.00
8717;BME280;4395;48.554;8.820;2022-09-01T06:05:29;96092.88;;;15.60;100.00
8717;BME280;4395;48.554;8.820;2022-09-01T06:07:34;96089.28;;;15.75;100.00
8717;BME280;4395;48.554;8.820;2022-09-01T06:09:41;96084.50;;;15.47;100.00
8717;BME280;4395;48.554;8.820;2022-09-01T06:11:45;95889.75;;;13.62;100.00
8717;BME280;4395;48.554;8.820;2022-09-01T06:13:48;95987.56;;;14.94;100.00
8717;BME280;4395;48.554;8.820;2022-09-01T06:15:55;96097.63;;;15.84;100.00
8717;BME280;4395;48.554;8.820;2022-09-01T06:17:59;96091.88;;;15.90;100.00
8717;BME280;4395;48.554;8.820;2022-09-01T06:20:06;96100.47;;;16.02;100.00
8717;BME280;4395;48.554;8.820;2022-09-01T06:22:14;96090.44;;;16.03;100.00
8717;BME280;4395;48.554;8.820;2022-09-01T06:24:19;96094.09;;;15.83;100.00
8717;BME280;4395;48.554;8.820;2022-09-01T06:26:23;94672.25;;;6.87;100.00
8717;BME280;4395;48.554;8.820;2022-09-01T06:28:32;96108.50;;;16.18;100.00
8717;BME280;4395;48.554;8.820;2022-09-01T06:30:35;96103.88;;;16.18;100.00
8717;BME280;4395;48.554;8.820;2022-09-01T06:32:43;96109.28;;;16.23;100.00
8717;BME280;4395;48.554;8.820;2022-09-01T06:34:46;96110.72;;;16.45;100.00
8717;BME280;4395;48.554;8.820;2022-09-01T06:36:51;96103.06;;;16.52;100.00
8717;BME280;4395;48.554;8.820;2022-09-01T06:38:55;96105.69;;;16.62;100.00
8717;BME280;4395;48.554;8.820;2022-09-01T06:41:00;96087.09;;;16.16;100.00
8717;BME280;4395;48.554;8.820;2022-09-01T06:43:04;95932.50;;;15.58;100.00
8717;BME280;4395;48.554;8.820;2022-09-01T06:45:12;96113.31;;;16.60;100.00
8717;BME280;4395;48.554;8.820;2022-09-01T06:47:15;96110.44;;;16.80;100.00
8717;BME280;4395;48.554;8.820;2022-09-01T06:49:18;96106.00;;;16.89;100.00
8717;BME280;4395;48.554;8.820;2022-09-01T06:51:25;96113.75;;;17.01;100.00
8717;BME280;4395;48.554;8.820;2022-09-01T06:53:30;96035.72;;;16.59;100.00
8717;BME280;4395;48.554;8.820;2022-09-01T06:55:49;96013.50;;;16.57;100.00
8717;BME280;4395;48.554;8.820;2022-09-01T06:57:55;96115.91;;;17.28;100.00
8717;BME280;4395;48.554;8.820;2022-09-01T07:00:11;96121.09;;;17.24;100.00
8717;BME280;4395;48.554;8.820;2022-09-01T07:02:21;96124.22;;;17.36;100.00
8717;BME280;4395;48.554;8.820;2022-09-01T07:04:55;96121.44;;;17.42;100.00
8717;BME280;4395;48.554;8.820;2022-09-01T07:07:02;96130.38;;;17.42;100.00
8717;BME280;4395;48.554;8.820;2022-09-01T07:09:44;96132.59;;;17.40;100.00
8717;BME280;4395;48.554;8.820;2022-09-01T07:12:15;96133.63;;;17.44;100.00
8717;BME280;4395;48.554;8.820;2022-09-01T07:14:30;96135.19;;;17.50;100.00
8717;BME280;4395;48.554;8.820;2022-09-01T07:16:35;95829.88;;;15.23;100.00
8717;BME280;4395;48.554;8.820;2022-09-01T07:18:56;96132.91;;;17.57;100.00
8717;BME280;4395;48.554;8.820;2022-09-01T07:21:05;96132.63;;;17.59;100.00
8717;BME280;4395;48.554;8.820;2022-09-01T07:23:29;96140.16;;;17.67;100.00
8717;BME280;4395;48.554;8.820;2022-09-01T07:25:48;96137.16;;;17.68;100.00
8717;BME280;4395;48.554;8.820;2022-09-01T07:28:07;96125.81;;;17.61;100.00
8717;BME280;4395;48.554;8.820;2022-09-01T07:30:11;96134.53;;;17.58;100.00
8717;BME280;4395;48.554;8.820;2022-09-01T07:32:14;96136.69;;;17.61;100.00
8717;BME280;4395;48.554;8.820;2022-09-01T07:34:38;96040.09;;;17.08;100.00
8717;BME280;4395;48.554;8.820;2022-09-01T07:36:44;96139.91;;;17.63;100.00
8717;BME280;4395;48.554;8.820;2022-09-01T07:39:10;96096.47;;;17.16;100.00
8717;BME280;4395;48.554;8.820;2022-09-01T07:41:56;95969.53;;;16.84;100.00
8717;BME280;4395;48.554;8.820;2022-09-01T07:44:38;96141.94;;;17.77;100.00
8717;BME280;4395;48.554;8.820;2022-09-01T07:47:12;96113.81;;;17.67;100.00
8717;BME280;4395;48.554;8.820;2022-09-01T07:49:36;96075.28;;;17.60;100.00
8717;BME280;4395;48.554;8.820;2022-09-01T07:52:00;96144.91;;;17.99;100.00
8717;BME280;4395;48.554;8.820;2022-09-01T07:54:05;96151.56;;;18.30;100.00
8717;BME280;4395;48.554;8.820;2022-09-01T07:56:09;96146.97;;;18.45;100.00
8717;BME280;4395;48.554;8.820;2022-09-01T07:58:19;96145.88;;;18.08;100.00
8717;BME280;4395;48.554;8.820;2022-09-01T08:00:26;96149.31;;;18.51;100.00
8717;BME280;4395;48.554;8.820;2022-09-01T08:02:38;96171.91;;;18.71;100.00
8717;BME280;4395;48.554;8.820;2022-09-01T08:04:42;96154.56;;;18.48;100.00
8717;BME280;4395;48.554;8.820;2022-09-01T08:06:45;96148.22;;;18.52;100.00
8717;BME280;4395;48.554;8.820;2022-09-01T08:08:50;96088.81;;;18.41;100.00
8717;BME280;4395;48.554;8.820;2022-09-01T08:10:58;96168.63;;;18.87;100.00
8717;BME280;4395;48.554;8.820;2022-09-01T08:13:05;96145.66;;;18.93;100.00
8717;BME280;4395;48.554;8.820;2022-09-01T08:15:09;95894.34;;;17.41;100.00
8717;BME280;4395;48.554;8.820;2022-09-01T08:17:33;96164.59;;;18.85;100.00
8717;BME280;4395;48.554;8.820;2022-09-01T08:19:57;96163.13;;;19.06;100.00
8717;BME280;4395;48.554;8.820;2022-09-01T08:22:19;96157.91;;;18.77;100.00
8717;BME280;4395;48.554;8.820;2022-09-01T08:24:33;95895.31;;;17.12;100.00
8717;BME280;4395;48.554;8.820;2022-09-01T08:26:36;96100.72;;;18.45;100.00
8717;BME280;4395;48.554;8.820;2022-09-01T08:28:39;96157.41;;;19.21;100.00
8717;BME280;4395;48.554;8.820;2022-09-01T08:30:46;96160.41;;;19.20;100.00
8717;BME280;4395;48.554;8.820;2022-09-01T08:32:56;96090.81;;;19.14;100.00
8717;BME280;4395;48.554;8.820;2022-09-01T08:35:00;96157.84;;;19.70;100.00
8717;BME280;4395;48.554;8.820;2022-09-01T08:37:08;96154.88;;;19.94;100.00
8717;BME280;4395;48.554;8.820;2022-09-01T08:39:12;96166.25;;;20.23;100.00
8717;BME280;4395;48.554;8.820;2022-09-01T08:41:18;96165.03;;;19.66;100.00
8717;BME280;4395;48.554;8.820;2022-09-01T08:43:43;96163.38;;;19.51;100.00
8717;BME280;4395;48.554;8.820;2022-09-01T08:45:50;96163.66;;;20.04;100.00
8717;BME280;4395;48.554;8.820;2022-09-01T08:47:57;96160.00;;;20.09;100.00
8717;BME280;4395;48.554;8.820;2022-09-01T08:50:24;96157.59;;;20.07;100.00
8717;BME280;4395;48.554;8.820;2022-09-01T08:52:30;96185.22;;;20.28;98.96
8717;BME280;4395;48.554;8.820;2022-09-01T08:54:42;96162.44;;;20.82;92.14
8717;BME280;4395;48.554;8.820;2022-09-01T08:56:51;96160.69;;;21.09;87.98
8717;BME280;4395;48.554;8.820;2022-09-01T08:59:16;96159.59;;;21.41;87.79
8717;BME280;4395;48.554;8.820;2022-09-01T09:01:45;96154.25;;;21.36;83.24
8717;BME280;4395;48.554;8.820;2022-09-01T09:04:02;96157.88;;;21.54;82.04
8717;BME280;4395;48.554;8.820;2022-09-01T09:06:14;96154.72;;;21.29;81.95
8717;BME280;4395;48.554;8.820;2022-09-01T09:08:39;96160.13;;;21.60;77.68
8717;BME280;4395;48.554;8.820;2022-09-01T09:10:50;96162.13;;;21.37;79.17
8717;BME280;4395;48.554;8.820;2022-09-01T09:13:06;96164.44;;;21.53;82.08
8717;BME280;4395;48.554;8.820;2022-09-01T09:15:19;96164.16;;;21.63;83.48
8717;BME280;4395;48.554;8.820;2022-09-01T09:17:29;96138.16;;;21.03;84.06
8717;BME280;4395;48.554;8.820;2022-09-01T09:19:36;95992.66;;;20.58;84.26
8717;BME280;4395;48.554;8.820;2022-09-01T09:21:45;96164.72;;;21.82;83.12
8717;BME280;4395;48.554;8.820;2022-09-01T09:23:55;96167.25;;;21.30;84.83
8717;BME280;4395;48.554;8.820;2022-09-01T09:25:59;96166.13;;;21.09;87.90
8717;BME280;4395;48.554;8.820;2022-09-01T09:28:02;96173.22;;;21.10;87.07
8717;BME280;4395;48.554;8.820;2022-09-01T09:30:07;96173.59;;;21.17;87.77
8717;BME280;4395;48.554;8.820;2022-09-01T09:32:12;96170.44;;;21.63;85.54
8717;BME280;4395;48.554;8.820;2022-09-01T09:34:37;96159.09;;;21.87;82.59
8717;BME280;4395;48.554;8.820;2022-09-01T09:36:42;96162.47;;;21.84;81.92
8717;BME280;4395;48.554;8.820;2022-09-01T09:39:07;96164.09;;;21.45;83.65
8717;BME280;4395;48.554;8.820;2022-09-01T09:41:15;96164.38;;;21.35;85.80
8717;BME280;4395;48.554;8.820;2022-09-01T09:43:28;96158.13;;;21.83;84.97
8717;BME280;4395;48.554;8.820;2022-09-01T09:45:34;96160.06;;;21.91;84.09
8717;BME280;4395;48.554;8.820;2022-09-01T09:47:39;96151.03;;;21.82;82.55
8717;BME280;4395;48.554;8.820;2022-09-01T09:49:45;96162.72;;;22.05;80.83
8717;BME280;4395;48.554;8.820;2022-09-01T09:51:53;96166.00;;;21.85;78.87
8717;BME280;4395;48.554;8.820;2022-09-01T09:54:09;96156.69;;;21.94;79.08
8717;BME280;4395;48.554;8.820;2022-09-01T09:56:18;96106.00;;;21.88;77.72
8717;BME280;4395;48.554;8.820;2022-09-01T09:58:22;96149.22;;;22.26;76.94
8717;BME280;4395;48.554;8.820;2022-09-01T10:00:29;96146.00;;;22.41;76.19
8717;BME280;4395;48.554;8.820;2022-09-01T10:02:37;96154.94;;;21.98;78.56
8717;BME280;4395;48.554;8.820;2022-09-01T10:04:40;96151.47;;;22.24;78.80
8717;BME280;4395;48.554;8.820;2022-09-01T10:06:43;96154.53;;;22.22;79.85
8717;BME280;4395;48.554;8.820;2022-09-01T10:08:49;96153.72;;;22.13;78.89
8717;BME280;4395;48.554;8.820;2022-09-01T10:10:52;96119.81;;;21.83;79.34
8717;BME280;4395;48.554;8.820;2022-09-01T10:13:00;96148.72;;;22.06;78.96
8717;BME280;4395;48.554;8.820;2022-09-01T10:15:05;96149.34;;;22.03;78.71
8717;BME280;4395;48.554;8.820;2022-09-01T10:17:17;96145.50;;;22.73;77.14
8717;BME280;4395;48.554;8.820;2022-09-01T10:19:21;96152.13;;;22.90;73.99
8717;BME280;4395;48.554;8.820;2022-09-01T10:21:27;96144.06;;;22.67;75.34
8717;BME280;4395;48.554;8.820;2022-09-01T10:23:35;96142.28;;;22.71;74.95
8717;BME280;4395;48.554;8.820;2022-09-01T10:25:41;96146.63;;;22.90;74.17
8717;BME280;4395;48.554;8.820;2022-09-01T10:27:51;96145.31;;;23.13;70.78
8717;BME280;4395;48.554;8.820;2022-09-01T10:30:03;96139.22;;;22.99;67.00
8717;BME280;4395;48.554;8.820;2022-09-01T10:32:18;95976.94;;;21.86;69.65
8717;BME280;4395;48.554;8.820;2022-09-01T10:34:38;95993.34;;;22.38;68.46
8717;BME280;4395;48.554;8.820;2022-09-01T10:36:44;96135.19;;;23.52;67.94
8717;BME280;4395;48.554;8.820;2022-09-01T10:38:57;96131.31;;;23.53;68.82
8717;BME280;4395;48.554;8.820;2022-09-01T10:41:08;96124.34;;;23.64;67.09
8717;BME280;4395;48.554;8.820;2022-09-01T10:43:32;96135.44;;;23.76;66.62
8717;BME280;4395;48.554;8.820;2022-09-01T10:45:38;95956.00;;;22.25;67.61
8717;BME280;4395;48.554;8.820;2022-09-01T10:47:41;96057.53;;;22.75;68.67
8717;BME280;4395;48.554;8.820;2022-09-01T10:50:00;96127.38;;;23.24;71.06
8717;BME280;4395;48.554;8.820;2022-09-01T10:52:10;96067.66;;;22.74;71.30
8717;BME280;4395;48.554;8.820;2022-09-01T10:54:49;96125.13;;;23.18;71.09
8717;BME280;4395;48.554;8.820;2022-09-01T10:56:57;96130.19;;;22.90;72.84
8717;BME280;4395;48.554;8.820;2022-09-01T10:59:28;96124.03;;;23.10;72.10
8717;BME280;4395;48.554;8.820;2022-09-01T11:02:05;96119.19;;;23.62;69.30
8717;BME280;4395;48.554;8.820;2022-09-01T11:07:29;96125.09;;;23.26;67.77
8717;BME280;4395;48.554;8.820;2022-09-01T11:10:13;96069.03;;;23.15;68.09
8717;BME280;4395;48.554;8.820;2022-09-01T11:12:45;96051.72;;;23.70;64.93
8717;BME280;4395;48.554;8.820;2022-09-01T11:14:51;96112.63;;;23.84;66.32
8717;BME280;4395;48.554;8.820;2022-09-01T11:17:12;96069.31;;;23.69;63.87
8717;BME280;4395;48.554;8.820;2022-09-01T11:19:40;96116.09;;;24.64;60.95
8717;BME280;4395;48.554;8.820;2022-09-01T11:21:46;96113.81;;;24.25;60.08
8717;BME280;4395;48.554;8.820;2022-09-01T11:23:49;95936.75;;;23.27;59.51
8717;BME280;4395;48.554;8.820;2022-09-01T11:25:56;96071.97;;;24.28;61.83
8717;BME280;4395;48.554;8.820;2022-09-01T11:28:45;96116.47;;;24.75;59.50
8717;BME280;4395;48.554;8.820;2022-09-01T11:30:50;96112.16;;;25.19;58.25
8717;BME280;4395;48.554;8.820;2022-09-01T11:32:58;96118.91;;;25.67;54.38
8717;BME280;4395;48.554;8.820;2022-09-01T11:35:05;96107.66;;;26.09;50.76
8717;BME280;4395;48.554;8.820;2022-09-01T11:37:16;96118.78;;;25.76;53.89
8717;BME280;4395;48.554;8.820;2022-09-01T11:39:30;95994.03;;;24.53;55.36